sensor_id;sensor_type;location;lat;lon;timestamp;temperature;humidity
12922;DHT22;6528;48.086;16.282;2022-12-29T00:00:06;21.40;99.90
12922;DHT22;6528;48.086;16.282;2022-12-29T00:02:34;21.40;99.90
12922;DHT22;6528;48.086;16.282;2022-12-29T00:05:00;21.40;99.90
12922;DHT22;6528;48.086;16.282;2022-12-29T00:07:27;21.30;99.90
12922;DHT22;6528;48.086;16.282;2022-12-29T00:09:54;21.30;99.90
12922;DHT22;6528;48.086;16.282;2022-12-29T00:12:21;21.30;99.40
12922;DHT22;6528;48.086;16.282;2022-12-29T00:14:47;21.30;99.30
12922;DHT22;6528;48.086;16.282;2022-12-29T00:17:33;21.30;98.40
12922;DHT22;6528;48.086;16.282;2022-12-29T00:19:59;21.30;97.50
12922;DHT22;6528;48.086;16.282;2022-12-29T00:22:45;21.30;97.50
12922;DHT22;6528;48.086;16.282;2022-12-29T00:25:30;21.30;96.70
12922;DHT22;6528;48.086;16.282;2022-12-29T00:28:15;21.20;95.60
12922;DHT22;6528;48.086;16.282;2022-12-29T00:31:01;21.20;94.70
12922;DHT22;6528;48.086;16.282;2022-12-29T00:33:46;21.20;93.70
12922;DHT22;6528;48.086;16.282;2022-12-29T00:36:35;21.20;93.20
12922;DHT22;6528;48.086;16.282;2022-12-29T00:39:09;21.20;92.10
12922;DHT22;6528;48.086;16.282;2022-12-29T00:41:55;21.20;91.00
12922;DHT22;6528;48.086;16.282;2022-12-29T00:44:51;21.10;90.60
12922;DHT22;6528;48.086;16.282;2022-12-29T00:47:17;21.10;88.10
12922;DHT22;6528;48.086;16.282;2022-12-29T00:49:44;21.10;86.10
12922;DHT22;6528;48.086;16.282;2022-12-29T00:52:12;21.10;83.80
12922;DHT22;6528;48.086;16.282;2022-12-29T00:54:40;21.10;83.40
12922;DHT22;6528;48.086;16.282;2022-12-29T00:57:09;21.10;81.70
12922;DHT22;6528;48.086;16.282;2022-12-29T00:59:37;21.10;79.50
12922;DHT22;6528;48.086;16.282;2022-12-29T01:02:04;21.10;80.10
12922;DHT22;6528;48.086;16.282;2022-12-29T01:04:31;21.10;76.00
12922;DHT22;6528;48.086;16.282;2022-12-29T01:06:58;21.00;74.40
12922;DHT22;6528;48.086;16.282;2022-12-29T01:09:25;21.10;72.70
12922;DHT22;6528;48.086;16.282;2022-12-29T01:12:10;21.00;70.10
12922;DHT22;6528;48.086;16.282;2022-12-29T01:14:38;21.00;67.50
12922;DHT22;6528;48.086;16.282;2022-12-29T01:17:05;21.10;67.50
12922;DHT22;6528;48.086;16.282;2022-12-29T01:19:33;21.00;65.50
12922;DHT22;6528;48.086;16.282;2022-12-29T01:22:00;21.00;62.40
12922;DHT22;6528;48.086;16.282;2022-12-29T01:24:26;21.00;83.40
12922;DHT22;6528;48.086;16.282;2022-12-29T01:26:53;21.00;59.30
12922;DHT22;6528;48.086;16.282;2022-12-29T01:29:21;21.00;57.30
12922;DHT22;6528;48.086;16.282;2022-12-29T01:31:48;21.00;55.60
12922;DHT22;6528;48.086;16.282;2022-12-29T01:34:16;21.00;55.30
12922;DHT22;6528;48.086;16.282;2022-12-29T01:36:44;21.00;53.00
12922;DHT22;6528;48.086;16.282;2022-12-29T01:39:10;21.00;51.50
12922;DHT22;6528;48.086;16.282;2022-12-29T01:41:37;21.00;50.30
12922;DHT22;6528;48.086;16.282;2022-12-29T01:47:09;21.00;47.70
12922;DHT22;6528;48.086;16.282;2022-12-29T01:49:36;21.00;45.60
12922;DHT22;6528;48.086;16.282;2022-12-29T01:52:05;20.90;43.30
12922;DHT22;6528;48.086;16.282;2022-12-29T01:54:42;20.90;41.90
12922;DHT22;6528;48.086;16.282;2022-12-29T01:57:24;20.90;40.20
12922;DHT22;6528;48.086;16.282;2022-12-29T02:00:08;20.90;39.10
12922;DHT22;6528;48.086;16.282;2022-12-29T02:02:36;20.90;37.20
12922;DHT22;6528;48.086;16.282;2022-12-29T02:05:09;20.90;34.70
12922;DHT22;6528;48.086;16.282;2022-12-29T02:07:38;20.90;34.10
12922;DHT22;6528;48.086;16.282;2022-12-29T02:10:05;20.90;31.90
12922;DHT22;6528;48.086;16.282;2022-12-29T02:12:33;20.90;30.00
12922;DHT22;6528;48.086;16.282;2022-12-29T02:15:01;20.90;29.30
12922;DHT22;6528;48.086;16.282;2022-12-29T02:17:33;20.80;28.00
12922;DHT22;6528;48.086;16.282;2022-12-29T02:20:55;20.90;27.00
12922;DHT22;6528;48.086;16.282;2022-12-29T02:46:05;20.80;12.40
12922;DHT22;6528;48.086;16.282;2022-12-29T02:48:43;20.80;11.60
12922;DHT22;6528;48.086;16.282;2022-12-29T02:51:25;20.80;10.30
12922;DHT22;6528;48.086;16.282;2022-12-29T02:53:53;20.80;22.40
12922;DHT22;6528;48.086;16.282;2022-12-29T02:56:39;20.80;6.80
12922;DHT22;6528;48.086;16.282;2022-12-29T02:59:06;20.80;6.00
12922;DHT22;6528;48.086;16.282;2022-12-29T03:01:42;20.80;5.10
12922;DHT22;6528;48.086;16.282;2022-12-29T03:07:23;20.70;1.70
12922;DHT22;6528;48.086;16.282;2022-12-29T03:13:08;20.70;1.00
12922;DHT22;6528;48.086;16.282;2022-12-29T03:16:20;20.70;1.00
12922;DHT22;6528;48.086;16.282;2022-12-29T03:22:14;20.70;1.00
12922;DHT22;6528;48.086;16.282;2022-12-29T03:25:23;20.70;1.00
12922;DHT22;6528;48.086;16.282;2022-12-29T03:27:56;20.60;1.00
12922;DHT22;6528;48.086;16.282;2022-12-29T03:30:24;20.60;1.00
12922;DHT22;6528;48.086;16.282;2022-12-29T03:32:54;20.60;1.00
12922;DHT22;6528;48.086;16.282;2022-12-29T03:35:24;20.60;1.00
12922;DHT22;6528;48.086;16.282;2022-12-29T03:38:12;20.60;1.00
12922;DHT22;6528;48.086;16.282;2022-12-29T03:40:44;20.60;1.00
12922;DHT22;6528;48.086;16.282;2022-12-29T03:43:12;20.60;1.00
12922;DHT22;6528;48.086;16.282;2022-12-29T03:45:40;20.60;1.00
12922;DHT22;6528;48.086;16.282;2022-12-29T03:48:06;20.60;1.00
12922;DHT22;6528;48.086;16.282;2022-12-29T03:50:33;20.60;1.00
12922;DHT22;6528;48.086;16.282;2022-12-29T03:53:00;20.60;1.00
12922;DHT22;6528;48.086;16.282;2022-12-29T03:55:27;20.60;1.00
12922;DHT22;6528;48.086;16.282;2022-12-29T03:57:53;20.60;1.00
12922;DHT22;6528;48.086;16.282;2022-12-29T04:00:20;20.60;1.00
12922;DHT22;6528;48.086;16.282;2022-12-29T04:02:47;20.60;1.00
12922;DHT22;6528;48.086;16.282;2022-12-29T04:05:14;20.60;1.00
12922;DHT22;6528;48.086;16.282;2022-12-29T04:07:40;20.60;1.00
12922;DHT22;6528;48.086;16.282;2022-12-29T04:10:08;20.60;1.00
12922;DHT22;6528;48.086;16.282;2022-12-29T04:12:34;20.60;1.00
12922;DHT22;6528;48.086;16.282;2022-12-29T04:15:01;20.60;1.00
12922;DHT22;6528;48.086;16.282;2022-12-29T04:17:28;20.50;1.00
12922;DHT22;6528;48.086;16.282;2022-12-29T04:19:55;20.50;1.00
12922;DHT22;6528;48.086;16.282;2022-12-29T04:22:42;20.60;1.00
12922;DHT22;6528;48.086;16.282;2022-12-29T04:25:09;20.50;1.00
12922;DHT22;6528;48.086;16.282;2022-12-29T04:27:35;20.50;1.00
12922;DHT22;6528;48.086;16.282;2022-12-29T04:30:02;20.50;1.00
12922;DHT22;6528;48.086;16.282;2022-12-29T04:32:29;20.50;1.00
12922;DHT22;6528;48.086;16.282;2022-12-29T04:34:56;20.50;1.00
12922;DHT22;6528;48.086;16.282;2022-12-29T04:37:23;20.50;1.00
12922;DHT22;6528;48.086;16.282;2022-12-29T04:39:49;20.60;1.00
12922;DHT22;6528;48.086;16.282;2022-12-29T04:42:16;20.60;1.00
12922;DHT22;6528;48.086;16.282;2022-12-29T04:44:43;20.60;1.00
12922;DHT22;6528;48.086;16.282;2022-12-29T04:47:11;20.60;1.00
12922;DHT22;6528;48.086;16.282;2022-12-29T04:49:37;20.60;1.00
12922;DHT22;6528;48.086;16.282;2022-12-29T04:52:04;20.50;1.00
12922;DHT22;6528;48.086;16.282;2022-12-29T04:54:31;20.60;1.00
12922;DHT22;6528;48.086;16.282;2022-12-29T04:56:57;20.60;1.00
12922;DHT22;6528;48.086;16.282;2022-12-29T04:59:24;20.60;1.00
12922;DHT22;6528;48.086;16.282;2022-12-29T05:01:51;20.60;1.00
12922;DHT22;6528;48.086;16.282;2022-12-29T05:04:18;20.60;1.00
12922;DHT22;6528;48.086;16.282;2022-12-29T05:06:44;20.60;1.00
12922;DHT22;6528;48.086;16.282;2022-12-29T05:09:11;20.60;1.00
12922;DHT22;6528;48.086;16.282;2022-12-29T05:11:38;20.60;1.00
12922;DHT22;6528;48.086;16.282;2022-12-29T05:14:04;20.60;1.00
12922;DHT22;6528;48.086;16.282;2022-12-29T05:16:31;20.60;1.00
12922;DHT22;6528;48.086;16.282;2022-12-29T05:18:58;20.60;1.00
12922;DHT22;6528;48.086;16.282;2022-12-29T05:21:25;20.60;1.00
12922;DHT22;6528;48.086;16.282;2022-12-29T05:23:51;20.60;1.00
12922;DHT22;6528;48.086;16.282;2022-12-29T05:26:18;20.60;1.00
12922;DHT22;6528;48.086;16.282;2022-12-29T05:28:45;20.60;1.00
12922;DHT22;6528;48.086;16.282;2022-12-29T05:31:12;20.60;1.00
12922;DHT22;6528;48.086;16.282;2022-12-29T05:33:39;20.60;1.00
12922;DHT22;6528;48.086;16.282;2022-12-29T05:36:07;20.60;1.00
12922;DHT22;6528;48.086;16.282;2022-12-29T05:38:34;20.60;1.00
12922;DHT22;6528;48.086;16.282;2022-12-29T05:41:01;20.60;1.00
12922;DHT22;6528;48.086;16.282;2022-12-29T05:43:28;20.60;1.00
12922;DHT22;6528;48.086;16.282;2022-12-29T05:45:56;20.60;1.00
12922;DHT22;6528;48.086;16.282;2022-12-29T05:48:23;20.70;1.00
12922;DHT22;6528;48.086;16.282;2022-12-29T05:50:51;20.60;1.00
12922;DHT22;6528;48.086;16.282;2022-12-29T05:53:18;20.70;1.00
12922;DHT22;6528;48.086;16.282;2022-12-29T05:55:46;20.70;1.00
12922;DHT22;6528;48.086;16.282;2022-12-29T05:58:16;20.70;1.00
12922;DHT22;6528;48.086;16.282;2022-12-29T06:00:43;20.70;1.00
12922;DHT22;6528;48.086;16.282;2022-12-29T06:03:10;20.70;1.00
12922;DHT22;6528;48.086;16.282;2022-12-29T06:05:37;20.70;1.00
12922;DHT22;6528;48.086;16.282;2022-12-29T06:08:04;20.70;1.00
12922;DHT22;6528;48.086;16.282;2022-12-29T06:10:31;20.70;1.00
12922;DHT22;6528;48.086;16.282;2022-12-29T06:12:58;20.70;1.00
12922;DHT22;6528;48.086;16.282;2022-12-29T06:15:24;20.70;1.00
12922;DHT22;6528;48.086;16.282;2022-12-29T06:17:51;20.70;1.00
12922;DHT22;6528;48.086;16.282;2022-12-29T06:20:18;20.70;1.00
12922;DHT22;6528;48.086;16.282;2022-12-29T06:22:45;20.70;1.00
12922;DHT22;6528;48.086;16.282;2022-12-29T06:25:13;20.70;1.00
12922;DHT22;6528;48.086;16.282;2022-12-29T06:27:39;20.70;1.00
12922;DHT22;6528;48.086;16.282;2022-12-29T06:30:07;20.70;1.00
12922;DHT22;6528;48.086;16.282;2022-12-29T06:32:35;20.70;1.00
12922;DHT22;6528;48.086;16.282;2022-12-29T06:35:02;20.70;1.00
12922;DHT22;6528;48.086;16.282;2022-12-29T06:37:29;20.70;1.00
12922;DHT22;6528;48.086;16.282;2022-12-29T06:39:58;20.70;1.00
12922;DHT22;6528;48.086;16.282;2022-12-29T06:42:25;20.70;1.00
12922;DHT22;6528;48.086;16.282;2022-12-29T06:44:52;20.70;1.00
12922;DHT22;6528;48.086;16.282;2022-12-29T06:47:19;20.70;1.00
12922;DHT22;6528;48.086;16.282;2022-12-29T06:49:46;20.70;1.00
12922;DHT22;6528;48.086;16.282;2022-12-29T06:52:13;20.70;1.00
12922;DHT22;6528;48.086;16.282;2022-12-29T06:54:39;20.70;1.00
12922;DHT22;6528;48.086;16.282;2022-12-29T06:57:06;20.70;1.00
12922;DHT22;6528;48.086;16.282;2022-12-29T06:59:33;20.70;1.00
12922;DHT22;6528;48.086;16.282;2022-12-29T07:02:00;20.70;1.00
12922;DHT22;6528;48.086;16.282;2022-12-29T07:04:29;20.70;1.00
12922;DHT22;6528;48.086;16.282;2022-12-29T07:06:56;20.70;1.00
12922;DHT22;6528;48.086;16.282;2022-12-29T07:09:22;20.70;1.00
12922;DHT22;6528;48.086;16.282;2022-12-29T07:11:49;20.70;1.00
12922;DHT22;6528;48.086;16.282;2022-12-29T07:14:16;20.70;1.00
12922;DHT22;6528;48.086;16.282;2022-12-29T07:16:43;20.70;1.00
12922;DHT22;6528;48.086;16.282;2022-12-29T07:19:10;20.70;1.00
12922;DHT22;6528;48.086;16.282;2022-12-29T07:21:37;20.70;1.00
12922;DHT22;6528;48.086;16.282;2022-12-29T07:24:03;20.70;1.00
12922;DHT22;6528;48.086;16.282;2022-12-29T07:26:31;20.70;1.00
12922;DHT22;6528;48.086;16.282;2022-12-29T07:29:03;20.70;1.00
12922;DHT22;6528;48.086;16.282;2022-12-29T07:31:30;20.70;1.00
12922;DHT22;6528;48.086;16.282;2022-12-29T07:33:57;20.70;1.00
12922;DHT22;6528;48.086;16.282;2022-12-29T07:36:24;20.70;1.00
12922;DHT22;6528;48.086;16.282;2022-12-29T07:38:57;20.70;1.00
12922;DHT22;6528;48.086;16.282;2022-12-29T07:41:25;20.70;1.00
12922;DHT22;6528;48.086;16.282;2022-12-29T07:43:51;20.70;1.00
12922;DHT22;6528;48.086;16.282;2022-12-29T07:46:18;20.60;1.00
12922;DHT22;6528;48.086;16.282;2022-12-29T07:49:05;20.70;1.00
12922;DHT22;6528;48.086;16.282;2022-12-29T07:51:32;20.70;1.00
12922;DHT22;6528;48.086;16.282;2022-12-29T07:53:59;20.60;1.00
12922;DHT22;6528;48.086;16.282;2022-12-29T07:56:27;20.70;1.00
12922;DHT22;6528;48.086;16.282;2022-12-29T07:58:54;20.70;1.00
12922;DHT22;6528;48.086;16.282;2022-12-29T08:01:20;20.70;1.00
12922;DHT22;6528;48.086;16.282;2022-12-29T08:03:50;20.80;1.00
12922;DHT22;6528;48.086;16.282;2022-12-29T08:06:22;20.80;1.00
12922;DHT22;6528;48.086;16.282;2022-12-29T08:08:49;20.80;1.00
12922;DHT22;6528;48.086;16.282;2022-12-29T08:11:16;20.80;1.00
12922;DHT22;6528;48.086;16.282;2022-12-29T08:13:43;20.80;1.00
12922;DHT22;6528;48.086;16.282;2022-12-29T08:16:10;20.80;1.00
12922;DHT22;6528;48.086;16.282;2022-12-29T08:18:36;20.80;1.00
12922;DHT22;6528;48.086;16.282;2022-12-29T08:21:04;20.90;1.00
12922;DHT22;6528;48.086;16.282;2022-12-29T08:23:31;20.90;1.00
12922;DHT22;6528;48.086;16.282;2022-12-29T08:25:59;20.90;1.00
12922;DHT22;6528;48.086;16.282;2022-12-29T08:28:26;20.90;1.00
12922;DHT22;6528;48.086;16.282;2022-12-29T08:30:53;21.00;1.00
12922;DHT22;6528;48.086;16.282;2022-12-29T08:33:19;21.10;1.00
12922;DHT22;6528;48.086;16.282;2022-12-29T08:35:46;21.10;1.00
12922;DHT22;6528;48.086;16.282;2022-12-29T08:38:13;21.10;1.00
12922;DHT22;6528;48.086;16.282;2022-12-29T08:40:40;21.20;1.00
12922;DHT22;6528;48.086;16.282;2022-12-29T08:43:06;21.20;1.00
12922;DHT22;6528;48.086;16.282;2022-12-29T08:45:34;21.30;1.00
12922;DHT22;6528;48.086;16.282;2022-12-29T08:48:01;21.30;1.00
12922;DHT22;6528;48.086;16.282;2022-12-29T08:50:27;21.30;1.00
12922;DHT22;6528;48.086;16.282;2022-12-29T08:52:54;21.40;1.00
12922;DHT22;6528;48.086;16.282;2022-12-29T08:55:21;21.40;1.00
12922;DHT22;6528;48.086;16.282;2022-12-29T08:57:48;21.50;1.00
12922;DHT22;6528;48.086;16.282;2022-12-29T09:00:14;21.50;1.00
12922;DHT22;6528;48.086;16.282;2022-12-29T09:02:41;21.50;1.00
12922;DHT22;6528;48.086;16.282;2022-12-29T09:05:08;21.60;1.00
12922;DHT22;6528;48.086;16.282;2022-12-29T09:07:36;21.60;1.00
12922;DHT22;6528;48.086;16.282;2022-12-29T09:10:03;21.70;1.00
12922;DHT22;6528;48.086;16.282;2022-12-29T09:12:30;21.70;1.00
12922;DHT22;6528;48.086;16.282;2022-12-29T09:15:03;21.80;1.00
12922;DHT22;6528;48.086;16.282;2022-12-29T09:17:30;21.80;1.00
12922;DHT22;6528;48.086;16.282;2022-12-29T09:20:11;21.90;1.00
12922;DHT22;6528;48.086;16.282;2022-12-29T09:22:38;21.90;1.00
12922;DHT22;6528;48.086;16.282;2022-12-29T09:25:05;22.00;1.00
12922;DHT22;6528;48.086;16.282;2022-12-29T09:27:32;22.00;2.50
12922;DHT22;6528;48.086;16.282;2022-12-29T09:29:59;22.10;5.10
12922;DHT22;6528;48.086;16.282;2022-12-29T09:32:26;22.10;6.20
12922;DHT22;6528;48.086;16.282;2022-12-29T09:34:59;22.10;7.70
12922;DHT22;6528;48.086;16.282;2022-12-29T09:37:26;22.10;8.90
12922;DHT22;6528;48.086;16.282;2022-12-29T09:39:52;22.20;10.90
12922;DHT22;6528;48.086;16.282;2022-12-29T09:42:37;22.20;12.60
12922;DHT22;6528;48.086;16.282;2022-12-29T09:45:32;22.20;14.30
12922;DHT22;6528;48.086;16.282;2022-12-29T09:48:00;22.30;16.50
12922;DHT22;6528;48.086;16.282;2022-12-29T09:50:37;22.30;18.00
12922;DHT22;6528;48.086;16.282;2022-12-29T09:53:14;22.30;19.30
12922;DHT22;6528;48.086;16.282;2022-12-29T09:55:46;22.30;21.10
12922;DHT22;6528;48.086;16.282;2022-12-29T10:01:01;22.40;24.40
12922;DHT22;6528;48.086;16.282;2022-12-29T10:03:51;22.40;25.90
12922;DHT22;6528;48.086;16.282;2022-12-29T10:06:34;22.40;27.20
12922;DHT22;6528;48.086;16.282;2022-12-29T10:15:38;22.40;31.60
12922;DHT22;6528;48.086;16.282;2022-12-29T10:24:04;22.40;33.70
12922;DHT22;6528;48.086;16.282;2022-12-29T10:26:43;22.40;35.10
12922;DHT22;6528;48.086;16.282;2022-12-29T10:29:19;22.50;34.60
12922;DHT22;6528;48.086;16.282;2022-12-29T10:31:57;22.50;35.40
12922;DHT22;6528;48.086;16.282;2022-12-29T10:34:34;22.50;36.30
12922;DHT22;6528;48.086;16.282;2022-12-29T10:37:14;22.50;37.20
12922;DHT22;6528;48.086;16.282;2022-12-29T10:39:51;22.50;38.60
12922;DHT22;6528;48.086;16.282;2022-12-29T10:42:36;22.50;39.50
12922;DHT22;6528;48.086;16.282;2022-12-29T10:45:13;22.50;39.10
12922;DHT22;6528;48.086;16.282;2022-12-29T10:47:55;22.50;39.60
12922;DHT22;6528;48.086;16.282;2022-12-29T10:50:25;22.50;40.30
12922;DHT22;6528;48.086;16.282;2022-12-29T10:52:53;22.50;40.70
12922;DHT22;6528;48.086;16.282;2022-12-29T10:55:24;22.50;41.90
12922;DHT22;6528;48.086;16.282;2022-12-29T10:57:55;22.50;42.30
12922;DHT22;6528;48.086;16.282;2022-12-29T11:00:25;22.50;43.10
12922;DHT22;6528;48.086;16.282;2022-12-29T11:08:20;22.50;43.40
12922;DHT22;6528;48.086;16.282;2022-12-29T11:10:59;22.40;44.70
12922;DHT22;6528;48.086;16.282;2022-12-29T11:13:33;22.40;43.00
12922;DHT22;6528;48.086;16.282;2022-12-29T11:16:05;22.30;42.60
12922;DHT22;6528;48.086;16.282;2022-12-29T11:18:36;22.30;42.00
12922;DHT22;6528;48.086;16.282;2022-12-29T11:21:34;22.30;41.70
12922;DHT22;6528;48.086;16.282;2022-12-29T11:24:19;22.30;41.80
12922;DHT22;6528;48.086;16.282;2022-12-29T11:26:47;22.30;42.00
12922;DHT22;6528;48.086;16.282;2022-12-29T11:29:24;22.30;40.90
12922;DHT22;6528;48.086;16.282;2022-12-29T11:31:56;22.20;39.70
12922;DHT22;6528;48.086;16.282;2022-12-29T11:34:31;22.30;40.20
12922;DHT22;6528;48.086;16.282;2022-12-29T11:37:15;22.20;39.80
12922;DHT22;6528;48.086;16.282;2022-12-29T11:39:55;22.30;39.50
12922;DHT22;6528;48.086;16.282;2022-12-29T11:45:15;22.20;40.50
12922;DHT22;6528;48.086;16.282;2022-12-29T11:47:45;22.20;39.80
12922;DHT22;6528;48.086;16.282;2022-12-29T11:50:30;22.20;38.50
12922;DHT22;6528;48.086;16.282;2022-12-29T11:53:03;22.20;39.30
12922;DHT22;6528;48.086;16.282;2022-12-29T11:55:32;22.20;39.90
12922;DHT22;6528;48.086;16.282;2022-12-29T11:58:02;22.20;38.60
12922;DHT22;6528;48.086;16.282;2022-12-29T12:00:36;22.20;38.80
12922;DHT22;6528;48.086;16.282;2022-12-29T12:03:21;22.20;39.50
12922;DHT22;6528;48.086;16.282;2022-12-29T12:06:01;22.20;38.80
12922;DHT22;6528;48.086;16.282;2022-12-29T12:08:44;22.20;38.50
12922;DHT22;6528;48.086;16.282;2022-12-29T12:14:00;22.10;38.20
12922;DHT22;6528;48.086;16.282;2022-12-29T12:16:33;22.20;37.60
12922;DHT22;6528;48.086;16.282;2022-12-29T12:22:03;22.10;37.00
12922;DHT22;6528;48.086;16.282;2022-12-29T12:24:52;22.20;37.00
12922;DHT22;6528;48.086;16.282;2022-12-29T12:38:34;22.10;37.40
12922;DHT22;6528;48.086;16.282;2022-12-29T12:41:13;22.10;37.30
12922;DHT22;6528;48.086;16.282;2022-12-29T12:43:52;22.10;38.40
12922;DHT22;6528;48.086;16.282;2022-12-29T12:52:40;22.20;37.20
12922;DHT22;6528;48.086;16.282;2022-12-29T12:58:40;22.20;38.00
12922;DHT22;6528;48.086;16.282;2022-12-29T13:26:14;22.20;39.10
12922;DHT22;6528;48.086;16.282;2022-12-29T13:32:02;22.20;39.40
12922;DHT22;6528;48.086;16.282;2022-12-29T13:34:43;22.20;41.10
12922;DHT22;6528;48.086;16.282;2022-12-29T13:37:16;22.20;39.90
12922;DHT22;6528;48.086;16.282;2022-12-29T13:39:57;22.20;40.40
12922;DHT22;6528;48.086;16.282;2022-12-29T13:42:26;22.20;39.50
12922;DHT22;6528;48.086;16.282;2022-12-29T13:45:10;22.20;40.30
12922;DHT22;6528;48.086;16.282;2022-12-29T13:47:42;22.20;40.10
12922;DHT22;6528;48.086;16.282;2022-12-29T13:50:17;22.10;39.40
12922;DHT22;6528;48.086;16.282;2022-12-29T13:52:48;22.20;39.20
12922;DHT22;6528;48.086;16.282;2022-12-29T13:55:32;22.10;39.40
12922;DHT22;6528;48.086;16.282;2022-12-29T13:58:07;22.10;39.10
12922;DHT22;6528;48.086;16.282;2022-12-29T14:08:51;22.10;39.50
12922;DHT22;6528;48.086;16.282;2022-12-29T14:11:22;22.10;40.70
12922;DHT22;6528;48.086;16.282;2022-12-29T14:13:51;22.10;39.50
12922;DHT22;6528;48.086;16.282;2022-12-29T14:16:33;22.10;57.60
12922;DHT22;6528;48.086;16.282;2022-12-29T14:21:40;22.00;39.60
12922;DHT22;6528;48.086;16.282;2022-12-29T14:34:48;22.00;40.20
12922;DHT22;6528;48.086;16.282;2022-12-29T14:37:32;22.00;40.10
12922;DHT22;6528;48.086;16.282;2022-12-29T14:42:33;21.90;40.10
12922;DHT22;6528;48.086;16.282;2022-12-29T14:45:23;22.00;39.10
12922;DHT22;6528;48.086;16.282;2022-12-29T14:47:53;22.00;39.30
12922;DHT22;6528;48.086;16.282;2022-12-29T14:50:41;22.00;39.40
12922;DHT22;6528;48.086;16.282;2022-12-29T14:53:49;22.00;39.10
12922;DHT22;6528;48.086;16.282;2022-12-29T14:56:19;22.00;39.50
12922;DHT22;6528;48.086;16.282;2022-12-29T14:58:52;22.00;39.10
12922;DHT22;6528;48.086;16.282;2022-12-29T15:03:51;21.90;40.40
12922;DHT22;6528;48.086;16.282;2022-12-29T15:06:19;22.00;39.50
12922;DHT22;6528;48.086;16.282;2022-12-29T15:09:04;22.00;40.40
12922;DHT22;6528;48.086;16.282;2022-12-29T15:14:02;22.00;39.30
12922;DHT22;6528;48.086;16.282;2022-12-29T15:16:32;21.90;39.50
12922;DHT22;6528;48.086;16.282;2022-12-29T15:18:59;21.90;39.30
12922;DHT22;6528;48.086;16.282;2022-12-29T15:21:31;21.90;39.20
12922;DHT22;6528;48.086;16.282;2022-12-29T15:23:59;21.90;39.10
12922;DHT22;6528;48.086;16.282;2022-12-29T15:26:47;22.00;39.90
12922;DHT22;6528;48.086;16.282;2022-12-29T15:29:38;21.90;40.30
12922;DHT22;6528;48.086;16.282;2022-12-29T15:32:24;22.00;41.50
12922;DHT22;6528;48.086;16.282;2022-12-29T15:34:56;22.00;40.90
12922;DHT22;6528;48.086;16.282;2022-12-29T15:37:26;22.00;41.20
12922;DHT22;6528;48.086;16.282;2022-12-29T15:39:55;22.00;41.40
12922;DHT22;6528;48.086;16.282;2022-12-29T15:45:32;22.00;43.00
12922;DHT22;6528;48.086;16.282;2022-12-29T15:47:59;22.10;43.30
12922;DHT22;6528;48.086;16.282;2022-12-29T15:50:29;22.10;61.60
12922;DHT22;6528;48.086;16.282;2022-12-29T15:52:57;22.10;43.60
12922;DHT22;6528;48.086;16.282;2022-12-29T15:55:36;22.00;43.70
12922;DHT22;6528;48.086;16.282;2022-12-29T15:58:15;22.10;43.50
12922;DHT22;6528;48.086;16.282;2022-12-29T16:00:56;22.00;44.40
12922;DHT22;6528;48.086;16.282;2022-12-29T16:03:30;22.00;44.90
12922;DHT22;6528;48.086;16.282;2022-12-29T16:06:35;22.00;45.20
12922;DHT22;6528;48.086;16.282;2022-12-29T16:09:36;22.00;45.80
12922;DHT22;6528;48.086;16.282;2022-12-29T16:12:05;22.10;45.80
12922;DHT22;6528;48.086;16.282;2022-12-29T16:17:04;22.10;46.10
12922;DHT22;6528;48.086;16.282;2022-12-29T16:19:37;22.10;46.40
12922;DHT22;6528;48.086;16.282;2022-12-29T16:22:17;22.00;47.50
12922;DHT22;6528;48.086;16.282;2022-12-29T16:24:47;22.00;47.10
12922;DHT22;6528;48.086;16.282;2022-12-29T16:27:22;22.00;46.60
12922;DHT22;6528;48.086;16.282;2022-12-29T16:29:54;22.00;48.50
12922;DHT22;6528;48.086;16.282;2022-12-29T16:32:29;22.00;48.90
12922;DHT22;6528;48.086;16.282;2022-12-29T16:38:22;22.00;47.60
12922;DHT22;6528;48.086;16.282;2022-12-29T16:40:59;22.00;48.30
12922;DHT22;6528;48.086;16.282;2022-12-29T16:43:31;22.00;47.30
12922;DHT22;6528;48.086;16.282;2022-12-29T16:48:28;22.00;48.30
12922;DHT22;6528;48.086;16.282;2022-12-29T16:51:31;21.90;49.30
12922;DHT22;6528;48.086;16.282;2022-12-29T16:53:59;21.80;48.10
12922;DHT22;6528;48.086;16.282;2022-12-29T16:56:29;21.70;45.00
12922;DHT22;6528;48.086;16.282;2022-12-29T16:59:17;21.50;56.50
12922;DHT22;6528;48.086;16.282;2022-12-29T17:01:46;21.40;31.10
12922;DHT22;6528;48.086;16.282;2022-12-29T17:04:13;21.20;21.60
12922;DHT22;6528;48.086;16.282;2022-12-29T17:06:40;21.10;14.90
12922;DHT22;6528;48.086;16.282;2022-12-29T17:09:22;20.90;5.70
12922;DHT22;6528;48.086;16.282;2022-12-29T17:11:54;20.80;10.90
12922;DHT22;6528;48.086;16.282;2022-12-29T17:14:38;20.70;1.00
12922;DHT22;6528;48.086;16.282;2022-12-29T17:17:14;20.60;1.00
12922;DHT22;6528;48.086;16.282;2022-12-29T17:19:54;20.40;1.00
12922;DHT22;6528;48.086;16.282;2022-12-29T17:22:25;20.30;1.00
12922;DHT22;6528;48.086;16.282;2022-12-29T17:24:54;20.20;1.00
12922;DHT22;6528;48.086;16.282;2022-12-29T17:27:22;20.20;1.00
12922;DHT22;6528;48.086;16.282;2022-12-29T17:29:50;20.20;1.00
12922;DHT22;6528;48.086;16.282;2022-12-29T17:32:19;20.10;1.00
12922;DHT22;6528;48.086;16.282;2022-12-29T17:34:45;20.10;1.00
12922;DHT22;6528;48.086;16.282;2022-12-29T17:37:29;20.00;1.00
12922;DHT22;6528;48.086;16.282;2022-12-29T17:39:56;20.00;1.00
12922;DHT22;6528;48.086;16.282;2022-12-29T17:42:23;20.00;1.00
12922;DHT22;6528;48.086;16.282;2022-12-29T17:44:50;19.90;1.00
12922;DHT22;6528;48.086;16.282;2022-12-29T17:47:17;19.90;1.00
12922;DHT22;6528;48.086;16.282;2022-12-29T17:49:43;20.00;1.00
12922;DHT22;6528;48.086;16.282;2022-12-29T17:52:13;20.00;1.00
12922;DHT22;6528;48.086;16.282;2022-12-29T17:54:46;20.20;1.00
12922;DHT22;6528;48.086;16.282;2022-12-29T17:57:16;20.20;1.00
12922;DHT22;6528;48.086;16.282;2022-12-29T17:59:43;20.40;1.00
12922;DHT22;6528;48.086;16.282;2022-12-29T18:02:30;20.50;1.00
12922;DHT22;6528;48.086;16.282;2022-12-29T18:04:58;20.60;1.00
12922;DHT22;6528;48.086;16.282;2022-12-29T18:07:27;20.70;1.00
12922;DHT22;6528;48.086;16.282;2022-12-29T18:10:01;20.70;1.00
12922;DHT22;6528;48.086;16.282;2022-12-29T18:12:32;20.80;1.00
12922;DHT22;6528;48.086;16.282;2022-12-29T18:15:00;20.90;1.00
12922;DHT22;6528;48.086;16.282;2022-12-29T18:17:27;21.00;1.00
12922;DHT22;6528;48.086;16.282;2022-12-29T18:19:54;21.00;1.00
12922;DHT22;6528;48.086;16.282;2022-12-29T18:22:23;21.10;1.00
12922;DHT22;6528;48.086;16.282;2022-12-29T18:24:50;21.10;1.00
12922;DHT22;6528;48.086;16.282;2022-12-29T18:27:17;21.10;1.00
12922;DHT22;6528;48.086;16.282;2022-12-29T18:29:45;21.20;1.00
12922;DHT22;6528;48.086;16.282;2022-12-29T18:32:13;21.20;1.00
12922;DHT22;6528;48.086;16.282;2022-12-29T18:34:41;21.20;1.00
12922;DHT22;6528;48.086;16.282;2022-12-29T18:37:08;21.20;1.00
12922;DHT22;6528;48.086;16.282;2022-12-29T18:39:35;21.30;1.00